createdAt,value
2018-02-05T00:01:09.937Z,95557.63
2018-02-05T00:03:38.410Z,95557.20
2018-02-05T00:06:06.801Z,95564.22
2018-02-05T00:08:35.204Z,95559.69
2018-02-05T00:11:03.586Z,95560.81
2018-02-05T00:13:31.986Z,95564.61
2018-02-05T00:16:00.437Z,95558.80
2018-02-05T00:18:28.815Z,95565.88
2018-02-05T00:20:57.199Z,95570.45
2018-02-05T00:23:25.589Z,95564.95
2018-02-05T00:25:53.974Z,95566.12
2018-02-05T00:28:22.653Z,95571.59
2018-02-05T00:30:51.065Z,95564.25
2018-02-05T00:33:19.466Z,95570.27
2018-02-05T00:35:47.891Z,95580.00
2018-02-05T00:38:16.245Z,95578.02
2018-02-05T00:40:44.925Z,95580.91
2018-02-05T00:43:13.320Z,95582.23
2018-02-05T00:45:41.798Z,95575.88
2018-02-05T00:48:10.188Z,95584.84
2018-02-05T00:50:38.684Z,95580.55
2018-02-05T00:53:07.462Z,95580.31
2018-02-05T00:55:35.843Z,95580.98
2018-02-05T00:58:04.239Z,95581.37
2018-02-05T01:00:32.618Z,95586.89
2018-02-05T01:03:01.009Z,95593.19
2018-02-05T01:05:29.691Z,95591.98
2018-02-05T01:07:58.171Z,95591.50
2018-02-05T01:10:26.542Z,95587.79
2018-02-05T01:12:54.925Z,95587.05
2018-02-05T01:15:23.325Z,95589.17
2018-02-05T01:17:52.026Z,95581.92
2018-02-05T01:20:20.415Z,95585.33
2018-02-05T01:22:48.823Z,95591.95
2018-02-05T01:25:17.208Z,95592.17
2018-02-05T01:27:45.615Z,95593.33
2018-02-05T01:30:14.052Z,95592.86
2018-02-05T01:32:42.522Z,95585.73
2018-02-05T01:35:10.926Z,95590.42
2018-02-05T01:37:39.310Z,95593.38
2018-02-05T01:40:07.677Z,95581.52
2018-02-05T01:42:36.101Z,95593.86
2018-02-05T01:45:04.502Z,95592.81
2018-02-05T01:47:32.883Z,95587.91
2018-02-05T01:50:01.275Z,95582.84
2018-02-05T01:52:29.679Z,95589.20
2018-02-05T01:54:58.224Z,95590.77
2018-02-05T01:57:26.605Z,95594.97
2018-02-05T01:59:55.011Z,95592.69
2018-02-05T02:02:23.411Z,95590.25
2018-02-05T02:04:51.793Z,95586.97
2018-02-05T02:07:20.527Z,95582.23
2018-02-05T02:09:48.913Z,95585.89
2018-02-05T02:12:17.316Z,95589.91
2018-02-05T02:14:45.720Z,95584.16
2018-02-05T02:17:14.111Z,95576.81
2018-02-05T02:19:42.891Z,95582.31
2018-02-05T02:22:11.286Z,95580.39
2018-02-05T02:24:39.687Z,95577.98
2018-02-05T02:27:08.093Z,95580.83
2018-02-05T02:29:36.524Z,95587.44
2018-02-05T02:32:05.212Z,95585.67
2018-02-05T02:34:33.589Z,95580.09
2018-02-05T02:37:01.990Z,95582.25
2018-02-05T02:39:30.398Z,95577.26
2018-02-05T02:41:58.778Z,95580.23
2018-02-05T02:44:27.607Z,95580.87
2018-02-05T02:46:56.003Z,95578.75
2018-02-05T02:49:24.399Z,95584.00
2018-02-05T02:51:52.796Z,95582.14
2018-02-05T02:54:21.275Z,95585.58
2018-02-05T02:56:49.992Z,95584.17
2018-02-05T02:59:18.364Z,95580.63
2018-02-05T03:01:46.770Z,95588.22
2018-02-05T03:04:15.155Z,95583.92
2018-02-05T03:06:43.548Z,95583.50
2018-02-05T03:09:12.236Z,95591.52
2018-02-05T03:11:40.619Z,95590.14
2018-02-05T03:14:09.024Z,95589.97
2018-02-05T03:16:37.408Z,95597.41
2018-02-05T03:19:06.189Z,95588.66
2018-02-05T03:21:34.589Z,95595.98
2018-02-05T03:24:03.071Z,95599.84
2018-02-05T03:26:31.457Z,95600.43
2018-02-05T03:28:59.842Z,95604.30
2018-02-05T03:31:28.541Z,95601.81
2018-02-05T03:33:56.920Z,95600.80
2018-02-05T03:36:25.279Z,95600.75
2018-02-05T03:38:53.653Z,95602.47
2018-02-05T03:41:22.024Z,95606.25
2018-02-05T03:43:50.424Z,95607.19
2018-02-05T03:46:18.802Z,95607.81
2018-02-05T03:48:47.313Z,95606.02
2018-02-05T03:51:15.735Z,95619.25
2018-02-05T03:53:44.222Z,95614.59
2018-02-05T03:56:12.688Z,95615.75
2018-02-05T03:58:41.033Z,95615.55
2018-02-05T04:01:09.933Z,95618.17
2018-02-05T04:03:38.307Z,95619.47
2018-02-05T04:06:06.686Z,95625.98
2018-02-05T04:08:35.074Z,95625.20
2018-02-05T04:11:03.538Z,95625.72
2018-02-05T04:13:32.245Z,95627.64
2018-02-05T04:16:00.672Z,95624.50
2018-02-05T04:18:29.137Z,95633.26
2018-02-05T04:20:57.526Z,95631.06
2018-02-05T04:23:25.922Z,95636.17
2018-02-05T04:25:54.634Z,95643.59
2018-02-05T04:28:23.007Z,95645.64
2018-02-05T04:30:51.395Z,95642.11
2018-02-05T04:33:19.770Z,95648.89
2018-02-05T04:35:48.138Z,95648.92
2018-02-05T04:38:16.821Z,95646.73
2018-02-05T04:40:45.202Z,95653.48
2018-02-05T04:43:13.595Z,95649.27
2018-02-05T04:45:41.974Z,95650.34
2018-02-05T04:48:10.368Z,95644.77
2018-02-05T04:50:39.143Z,95649.37
2018-02-05T04:53:07.551Z,95653.83
2018-02-05T04:55:35.950Z,95657.10
2018-02-05T04:58:04.344Z,95660.97
2018-02-05T05:00:32.815Z,95660.69
2018-02-05T05:03:01.709Z,95662.42
2018-02-05T05:05:30.103Z,95657.66
2018-02-05T05:07:59.300Z,95661.36
2018-02-05T05:10:27.698Z,95660.52
2018-02-05T05:12:56.082Z,95660.38
2018-02-05T05:15:24.858Z,95662.04
2018-02-05T05:17:53.250Z,95669.27
2018-02-05T05:20:21.647Z,95669.41
2018-02-05T05:22:50.039Z,95666.33
2018-02-05T05:25:18.429Z,95666.16
2018-02-05T05:27:46.853Z,95672.57
2018-02-05T05:30:15.239Z,95672.62
2018-02-05T05:32:43.691Z,95666.80
2018-02-05T05:35:12.065Z,95666.83
2018-02-05T05:37:40.457Z,95678.45
2018-02-05T05:40:09.039Z,95678.52
2018-02-05T05:42:37.438Z,95679.63
2018-02-05T05:45:06.032Z,95690.62
2018-02-05T05:47:34.427Z,95683.63
2018-02-05T05:50:02.929Z,95683.75
2018-02-05T05:52:31.318Z,95687.76
2018-02-05T05:54:59.766Z,95687.34
2018-02-05T05:57:28.121Z,95684.39
2018-02-05T05:59:56.586Z,95686.99
2018-02-05T06:02:24.979Z,95693.01
2018-02-05T06:04:53.487Z,95695.58
2018-02-05T06:07:22.040Z,95698.57
2018-02-05T06:09:50.447Z,95695.56
2018-02-05T06:12:18.834Z,95698.87
2018-02-05T06:14:47.232Z,95704.25
2018-02-05T06:17:15.619Z,95703.06
2018-02-05T06:19:44.328Z,95709.13
2018-02-05T06:22:12.743Z,95706.66
2018-02-05T06:24:41.138Z,95708.41
2018-02-05T06:27:09.525Z,95712.03
2018-02-05T06:29:37.907Z,95714.30
2018-02-05T06:32:06.374Z,95717.03
2018-02-05T06:34:34.776Z,95709.33
2018-02-05T06:37:03.191Z,95708.75
2018-02-05T06:39:31.685Z,95714.95
2018-02-05T06:42:00.068Z,95722.22
2018-02-05T06:44:28.743Z,95720.86
2018-02-05T06:46:57.124Z,95726.08
2018-02-05T06:49:25.531Z,95722.67
2018-02-05T06:52:05.754Z,95719.18
2018-02-05T06:54:46.692Z,95726.61
2018-02-05T06:57:15.065Z,95724.61
2018-02-05T06:59:43.479Z,95725.60
2018-02-05T07:02:12.002Z,95735.95
2018-02-05T07:04:40.378Z,95740.64
2018-02-05T07:07:08.798Z,95741.25
2018-02-05T07:09:37.171Z,95731.98
2018-02-05T07:12:05.553Z,95737.33
2018-02-05T07:14:34.243Z,95741.41
2018-02-05T07:17:02.622Z,95735.63
2018-02-05T07:19:31.019Z,95732.20
2018-02-05T07:21:59.422Z,95736.06
2018-02-05T07:24:27.826Z,95734.55
2018-02-05T07:26:56.690Z,95737.31
2018-02-05T07:29:25.069Z,95735.89
2018-02-05T07:31:53.438Z,95734.19
2018-02-05T07:34:21.831Z,95733.98
2018-02-05T07:36:50.191Z,95734.52
2018-02-05T07:39:18.865Z,95735.67
2018-02-05T07:41:47.269Z,95730.78
2018-02-05T07:44:15.668Z,95738.74
2018-02-05T07:46:44.053Z,95737.72
2018-02-05T07:49:12.452Z,95733.46
2018-02-05T07:51:40.999Z,95735.75
2018-02-05T07:54:09.377Z,95739.36
2018-02-05T07:56:37.770Z,95737.67
2018-02-05T07:59:06.247Z,95742.94
2018-02-05T08:01:34.643Z,95733.18
2018-02-05T08:04:03.434Z,95740.97
2018-02-05T08:06:31.874Z,95740.92
2018-02-05T08:09:00.287Z,95738.95
2018-02-05T08:11:28.685Z,95731.42
2018-02-05T08:13:57.068Z,95743.96
2018-02-05T08:16:25.767Z,95739.86
2018-02-05T08:18:54.148Z,95734.53
2018-02-05T08:21:22.562Z,95732.67
2018-02-05T08:23:50.950Z,95728.30
2018-02-05T08:26:19.347Z,95738.83
2018-02-05T08:28:47.813Z,95739.05
2018-02-05T08:31:17.103Z,95741.25
2018-02-05T08:33:45.505Z,95752.11
2018-02-05T08:36:13.906Z,95739.77
2018-02-05T08:38:42.324Z,95743.03
2018-02-05T08:41:11.003Z,95742.70
2018-02-05T08:43:39.414Z,95748.73
2018-02-05T08:46:07.866Z,95750.42
2018-02-05T08:48:36.323Z,95751.03
2018-02-05T08:51:04.725Z,95741.37
2018-02-05T08:53:33.509Z,95736.50
2018-02-05T08:56:01.922Z,95737.64
2018-02-05T08:58:30.329Z,95739.97
2018-02-05T09:00:58.845Z,95743.46
2018-02-05T09:03:27.242Z,95743.84
2018-02-05T09:05:55.942Z,95745.80
2018-02-05T09:08:24.332Z,95737.64
2018-02-05T09:10:52.765Z,95738.30
2018-02-05T09:13:21.160Z,95736.72
2018-02-05T09:15:49.582Z,95731.88
2018-02-05T09:18:18.015Z,95736.39
2018-02-05T09:20:46.405Z,95727.95
2018-02-05T09:23:15.196Z,95726.84
2018-02-05T09:25:43.575Z,95737.42
2018-02-05T09:28:11.963Z,95723.66
2018-02-05T09:30:40.355Z,95724.26
2018-02-05T09:33:08.778Z,95712.18
2018-02-05T09:35:37.459Z,95724.33
2018-02-05T09:38:05.854Z,95727.34
2018-02-05T09:40:34.262Z,95730.87
2018-02-05T09:43:02.650Z,95734.14
2018-02-05T09:45:31.029Z,95737.31
2018-02-05T09:47:59.741Z,95745.21
2018-02-05T09:50:28.155Z,95736.98
2018-02-05T09:52:56.542Z,95733.67
2018-02-05T09:55:24.907Z,95740.06
2018-02-05T09:57:53.316Z,95737.30
2018-02-05T10:00:21.773Z,95736.41
2018-02-05T10:02:50.163Z,95735.97
2018-02-05T10:05:18.554Z,95745.09
2018-02-05T10:07:46.948Z,95731.78
2018-02-05T10:10:15.375Z,95727.98
2018-02-05T10:12:43.892Z,95724.41
2018-02-05T10:15:12.275Z,95726.35
2018-02-05T10:17:40.668Z,95725.31
2018-02-05T10:20:09.054Z,95714.54
2018-02-05T10:22:37.460Z,95715.61
2018-02-05T10:25:05.996Z,95711.17
2018-02-05T10:27:34.469Z,95707.55
2018-02-05T10:30:02.923Z,95715.83
2018-02-05T10:32:31.319Z,95710.92
2018-02-05T10:34:59.727Z,95716.95
2018-02-05T10:37:28.116Z,95718.52
2018-02-05T10:39:56.526Z,95708.38
2018-02-05T10:42:24.914Z,95707.48
2018-02-05T10:44:53.292Z,95706.20
2018-02-05T10:47:21.761Z,95706.23
2018-02-05T10:49:50.146Z,95705.21
2018-02-05T10:52:18.567Z,95718.72
2018-02-05T10:54:46.958Z,95715.32
2018-02-05T10:57:15.351Z,95714.58
2018-02-05T10:59:44.066Z,95717.07
2018-02-05T11:02:12.442Z,95712.66
2018-02-05T11:04:40.834Z,95706.92
2018-02-05T11:07:09.242Z,95704.98
2018-02-05T11:09:37.656Z,95700.61
2018-02-05T11:12:06.375Z,95699.05
2018-02-05T11:14:34.768Z,95693.07
2018-02-05T11:17:03.158Z,95696.34
2018-02-05T11:19:31.566Z,95699.77
2018-02-05T11:21:59.976Z,95698.91
2018-02-05T11:24:28.436Z,95691.27
2018-02-05T11:26:56.850Z,95690.09
2018-02-05T11:29:25.324Z,95696.53
2018-02-05T11:31:53.700Z,95683.95
2018-02-05T11:34:22.108Z,95697.55
2018-02-05T11:36:50.561Z,95697.91
2018-02-05T11:39:18.972Z,95691.77
2018-02-05T11:41:47.390Z,95689.69
2018-02-05T11:44:15.779Z,95692.75
2018-02-05T11:46:44.161Z,95691.39
2018-02-05T11:49:12.971Z,95686.70
2018-02-05T11:51:41.441Z,95686.55
2018-02-05T11:54:09.831Z,95687.27
2018-02-05T11:56:38.233Z,95695.83
2018-02-05T11:59:06.643Z,95682.82
2018-02-05T12:01:35.371Z,95686.06
2018-02-05T12:04:03.750Z,95680.77
2018-02-05T12:06:32.131Z,95672.02
2018-02-05T12:09:00.497Z,95665.13
2018-02-05T12:11:28.903Z,95666.11
2018-02-05T12:13:57.631Z,95661.75
2018-02-05T12:16:26.119Z,95672.17
2018-02-05T12:18:54.568Z,95664.34
2018-02-05T12:21:22.958Z,95656.54
2018-02-05T12:23:51.373Z,95652.45
2018-02-05T12:26:19.810Z,95660.27
2018-02-05T12:28:48.213Z,95650.43
2018-02-05T12:31:16.678Z,95656.82
2018-02-05T12:33:45.089Z,95652.46
2018-02-05T12:36:13.580Z,95651.73
2018-02-05T12:38:41.938Z,95660.91
2018-02-05T12:41:10.296Z,95660.13
2018-02-05T12:43:38.701Z,95652.79
2018-02-05T12:46:07.143Z,95652.18
2018-02-05T12:48:35.869Z,95645.56
2018-02-05T12:51:04.252Z,95646.11
2018-02-05T12:53:32.614Z,95637.22
2018-02-05T12:56:00.973Z,95631.88
2018-02-05T12:58:31.801Z,95637.45
2018-02-05T13:04:10.618Z,95628.72
2018-02-05T13:06:42.023Z,95630.30
2018-02-05T13:09:10.413Z,95621.55
2018-02-05T13:11:38.894Z,95619.55
2018-02-05T13:14:07.304Z,95622.73
2018-02-05T13:16:35.681Z,95618.20
2018-02-05T13:19:04.401Z,95614.09
2018-02-05T13:21:32.798Z,95613.64
2018-02-05T13:24:01.179Z,95618.31
2018-02-05T13:26:29.575Z,95612.72
2018-02-05T13:28:57.958Z,95610.81
2018-02-05T13:31:26.411Z,95606.42
2018-02-05T13:33:54.886Z,95610.17
2018-02-05T13:36:23.291Z,95608.79
2018-02-05T13:38:51.701Z,95606.66
2018-02-05T13:41:20.092Z,95606.95
2018-02-05T13:43:48.641Z,95603.23
2018-02-05T13:46:17.046Z,95602.47
2018-02-05T13:48:45.498Z,95598.60
2018-02-05T13:51:13.986Z,95593.13
2018-02-05T13:53:42.402Z,95595.10
2018-02-05T13:56:10.887Z,95591.59
2018-02-05T13:58:39.580Z,95588.94
2018-02-05T14:01:08.043Z,95593.66
2018-02-05T14:03:36.751Z,95588.79
2018-02-05T14:06:05.151Z,95591.39
2018-02-05T14:08:33.563Z,95591.22
2018-02-05T14:11:02.259Z,95585.55
2018-02-05T14:13:30.675Z,95577.55
2018-02-05T14:15:59.057Z,95581.09
2018-02-05T14:18:27.542Z,95594.53
2018-02-05T14:20:55.920Z,95573.58
2018-02-05T14:23:24.301Z,95576.06
2018-02-05T14:25:52.711Z,95579.41
2018-02-05T14:28:21.155Z,95573.37
2018-02-05T14:30:49.564Z,95565.97
2018-02-05T14:33:17.973Z,95573.72
2018-02-05T14:35:46.390Z,95559.59
2018-02-05T14:38:15.056Z,95565.13
2018-02-05T14:40:44.298Z,95554.61
2018-02-05T14:43:12.985Z,95548.28
2018-02-05T14:45:41.447Z,95544.34
2018-02-05T14:48:09.882Z,95547.69
2018-02-05T14:50:38.366Z,95541.02
2018-02-05T14:53:06.817Z,95541.93
2018-02-05T14:55:35.208Z,95533.53
2018-02-05T14:58:03.646Z,95538.38
2018-02-05T15:00:32.021Z,95537.78
2018-02-05T15:03:00.511Z,95531.05
2018-02-05T15:05:28.958Z,95523.73
2018-02-05T15:07:57.360Z,95524.48
2018-02-05T15:10:25.757Z,95529.19
2018-02-05T15:12:54.159Z,95523.94
2018-02-05T15:15:22.551Z,95522.88
2018-02-05T15:17:51.006Z,95514.27
2018-02-05T15:20:19.396Z,95508.83
2018-02-05T15:22:47.913Z,95524.56
2018-02-05T15:25:16.306Z,95511.40
2018-02-05T15:27:44.848Z,95510.55
2018-02-05T15:30:13.247Z,95506.93
2018-02-05T15:32:41.647Z,95500.65
2018-02-05T15:35:10.380Z,95500.00
2018-02-05T15:37:38.773Z,95499.12
2018-02-05T15:40:07.201Z,95499.34
2018-02-05T15:42:35.584Z,95497.75
2018-02-05T15:45:03.964Z,95498.80
2018-02-05T15:47:32.350Z,95501.34
2018-02-05T15:50:00.749Z,95502.94
2018-02-05T15:52:29.677Z,95496.16
2018-02-05T15:54:58.148Z,95505.71
2018-02-05T15:57:26.574Z,95496.85
2018-02-05T15:59:54.970Z,95501.47
2018-02-05T16:02:23.349Z,95501.83
2018-02-05T16:04:51.806Z,95501.73
2018-02-05T16:07:20.186Z,95507.60
2018-02-05T16:09:48.573Z,95507.64
2018-02-05T16:12:17.050Z,95498.91
2018-02-05T16:14:45.432Z,95501.52
2018-02-05T16:17:13.840Z,95494.17
2018-02-05T16:19:42.226Z,95498.49
2018-02-05T16:22:10.695Z,95500.96
2018-02-05T16:24:39.182Z,95500.51
2018-02-05T16:27:07.573Z,95500.16
2018-02-05T16:29:35.984Z,95494.14
2018-02-05T16:32:04.372Z,95493.14
2018-02-05T16:34:32.807Z,95488.50
2018-02-05T16:37:01.208Z,95494.50
2018-02-05T16:39:29.589Z,95485.48
2018-02-05T16:41:58.057Z,95486.69
2018-02-05T16:44:26.433Z,95492.41
2018-02-05T16:46:54.981Z,95481.84
2018-02-05T16:49:23.375Z,95478.73
2018-02-05T16:51:51.780Z,95471.36
2018-02-05T16:54:20.172Z,95474.87
2018-02-05T16:56:48.597Z,95473.06
2018-02-05T16:59:17.366Z,95479.95
2018-02-05T17:01:45.819Z,95472.56
2018-02-05T17:04:14.205Z,95472.63
2018-02-05T17:06:42.611Z,95469.95
2018-02-05T17:09:10.984Z,95462.64
2018-02-05T17:11:39.383Z,95466.02
2018-02-05T17:14:07.735Z,95459.89
2018-02-05T17:16:36.389Z,95465.59
2018-02-05T17:19:04.745Z,95460.23
2018-02-05T17:21:33.333Z,95464.88
2018-02-05T17:24:01.698Z,95456.44
2018-02-05T17:26:30.052Z,95464.08
2018-02-05T17:28:58.931Z,95461.73
2018-02-05T17:31:27.323Z,95458.52
2018-02-05T17:33:55.698Z,95461.19
2018-02-05T17:36:24.098Z,95459.10
2018-02-05T17:38:52.486Z,95458.56
2018-02-05T17:41:20.935Z,95454.26
2018-02-05T17:43:49.321Z,95455.46
2018-02-05T17:46:18.011Z,95451.72
2018-02-05T17:48:46.414Z,95448.55
2018-02-05T17:51:14.793Z,95440.71
2018-02-05T17:53:43.142Z,95450.06
2018-02-05T17:56:11.497Z,95448.36
2018-02-05T17:58:40.182Z,95442.30
2018-02-05T18:01:08.584Z,95450.28
2018-02-05T18:03:36.972Z,95452.49
2018-02-05T18:06:05.373Z,95444.53
2018-02-05T18:08:33.754Z,95449.20
2018-02-05T18:11:02.185Z,95448.52
2018-02-05T18:13:30.607Z,95446.63
2018-02-05T18:15:59.373Z,95458.78
2018-02-05T18:18:27.761Z,95444.77
2018-02-05T18:20:56.151Z,95453.88
2018-02-05T18:23:24.534Z,95447.05
2018-02-05T18:25:52.909Z,95439.78
2018-02-05T18:28:21.618Z,95449.17
2018-02-05T18:30:50.009Z,95451.11
2018-02-05T18:33:18.403Z,95451.70
2018-02-05T18:35:46.790Z,95432.63
2018-02-05T18:38:15.176Z,95436.89
2018-02-05T18:40:43.813Z,95438.51
2018-02-05T18:43:12.221Z,95434.56
2018-02-05T18:45:40.570Z,95436.74
2018-02-05T18:48:08.954Z,95427.05
2018-02-05T18:50:37.362Z,95439.23
2018-02-05T18:53:05.883Z,95432.55
2018-02-05T18:55:34.283Z,95424.77
2018-02-05T18:58:02.775Z,95427.53
2018-02-05T19:00:43.000Z,95423.81
2018-02-05T19:03:11.403Z,95417.75
2018-02-05T19:05:39.811Z,95418.13
2018-02-05T19:08:08.207Z,95423.66
2018-02-05T19:10:36.741Z,95423.17
2018-02-05T19:13:05.206Z,95415.27
2018-02-05T19:15:33.591Z,95407.31
2018-02-05T19:18:01.974Z,95416.38
2018-02-05T19:20:30.373Z,95412.34
2018-02-05T19:22:59.111Z,95415.23
2018-02-05T19:25:27.516Z,95403.52
2018-02-05T19:27:55.916Z,95410.73
2018-02-05T19:30:24.310Z,95414.38
2018-02-05T19:32:52.704Z,95406.20
2018-02-05T19:35:21.421Z,95410.88
2018-02-05T19:37:49.913Z,95410.67
2018-02-05T19:40:18.336Z,95400.66
2018-02-05T19:42:46.706Z,95408.77
2018-02-05T19:45:15.167Z,95401.31
2018-02-05T19:47:43.867Z,95396.37
2018-02-05T19:50:12.341Z,95393.95
2018-02-05T19:52:40.731Z,95391.94
2018-02-05T19:55:09.195Z,95391.53
2018-02-05T19:57:37.571Z,95390.86
2018-02-05T20:00:06.018Z,95396.67
2018-02-05T20:02:34.421Z,95394.52
2018-02-05T20:05:02.825Z,95394.19
2018-02-05T20:07:31.266Z,95389.94
2018-02-05T20:09:59.826Z,95385.00
2018-02-05T20:12:28.248Z,95390.37
2018-02-05T20:14:56.642Z,95384.36
2018-02-05T20:17:25.030Z,95385.47
2018-02-05T20:19:53.452Z,95382.13
2018-02-05T20:22:21.844Z,95389.41
2018-02-05T20:24:50.547Z,95383.88
2018-02-05T20:27:18.933Z,95385.95
2018-02-05T20:29:47.508Z,95383.31
2018-02-05T20:32:15.890Z,95390.03
2018-02-05T20:34:44.365Z,95385.34
2018-02-05T20:37:13.066Z,95387.24
2018-02-05T20:39:41.457Z,95382.29
2018-02-05T20:42:09.909Z,95376.45
2018-02-05T20:44:38.284Z,95386.47
2018-02-05T20:47:06.709Z,95398.30
2018-02-05T20:49:35.515Z,95387.10
2018-02-05T20:52:03.920Z,95377.38
2018-02-05T20:54:32.329Z,95384.66
2018-02-05T20:57:00.727Z,95386.64
2018-02-05T20:59:29.093Z,95381.59
2018-02-05T21:01:57.763Z,95377.23
2018-02-05T21:04:26.123Z,95377.94
2018-02-05T21:06:54.539Z,95379.52
2018-02-05T21:09:22.979Z,95373.19
2018-02-05T21:11:51.365Z,95372.17
2018-02-05T21:14:20.114Z,95373.05
2018-02-05T21:16:48.550Z,95365.15
2018-02-05T21:19:16.908Z,95368.35
2018-02-05T21:21:45.293Z,95366.30
2018-02-05T21:24:13.686Z,95367.99
2018-02-05T21:26:42.150Z,95353.45
2018-02-05T21:29:10.522Z,95359.05
2018-02-05T21:31:38.944Z,95360.47
2018-02-05T21:34:07.339Z,95353.39
2018-02-05T21:36:35.721Z,95345.75
2018-02-05T21:39:04.331Z,95346.02
2018-02-05T21:41:32.739Z,95345.27
2018-02-05T21:44:01.192Z,95342.57
2018-02-05T21:46:29.590Z,95346.81
2018-02-05T21:48:57.989Z,95342.28
2018-02-05T21:51:26.682Z,95342.55
2018-02-05T21:53:55.087Z,95340.05
2018-02-05T21:56:23.498Z,95342.41
2018-02-05T21:58:51.874Z,95341.79
2018-02-05T22:01:20.371Z,95333.18
2018-02-05T22:03:49.067Z,95326.98
2018-02-05T22:06:17.463Z,95331.92
2018-02-05T22:08:45.853Z,95327.15
2018-02-05T22:11:14.322Z,95323.16
2018-02-05T22:13:42.715Z,95313.75
2018-02-05T22:16:11.109Z,95313.70
2018-02-05T22:18:39.492Z,95316.16
2018-02-05T22:21:07.945Z,95303.28
2018-02-05T22:23:36.328Z,95304.66
2018-02-05T22:26:04.843Z,95301.67
2018-02-05T22:28:33.234Z,95301.34
2018-02-05T22:31:01.618Z,95291.41
2018-02-05T22:33:30.010Z,95286.17
2018-02-05T22:35:58.413Z,95292.76
2018-02-05T22:38:26.861Z,95286.84
2018-02-05T22:40:55.255Z,95281.25
2018-02-05T22:43:23.651Z,95273.86
2018-02-05T22:45:52.056Z,95277.37
2018-02-05T22:48:20.543Z,95268.61
2018-02-05T22:50:49.365Z,95282.70
2018-02-05T22:53:17.823Z,95278.38
2018-02-05T22:55:46.314Z,95274.20
2018-02-05T22:58:14.674Z,95262.16
2018-02-05T23:00:43.083Z,95264.95
2018-02-05T23:03:11.877Z,95256.17
2018-02-05T23:05:40.258Z,95250.42
2018-02-05T23:08:08.640Z,95245.94
2018-02-05T23:10:37.125Z,95253.84
2018-02-05T23:13:05.489Z,95243.16
2018-02-05T23:15:35.504Z,95241.94
2018-02-05T23:18:03.886Z,95238.41
2018-02-05T23:20:32.273Z,95229.13
2018-02-05T23:23:00.673Z,95235.22
2018-02-05T23:25:29.058Z,95230.43
2018-02-05T23:27:57.758Z,95227.97
2018-02-05T23:30:26.155Z,95227.02
2018-02-05T23:32:54.533Z,95226.27
2018-02-05T23:35:22.932Z,95221.39
2018-02-05T23:37:51.305Z,95224.17
2018-02-05T23:40:19.772Z,95221.86
2018-02-05T23:42:48.161Z,95212.50
2018-02-05T23:45:16.549Z,95204.07
2018-02-05T23:47:44.929Z,95198.92
2018-02-05T23:50:13.322Z,95198.75
2018-02-05T23:52:41.759Z,95199.88
2018-02-05T23:55:10.125Z,95196.88
2018-02-05T23:57:38.484Z,95198.62
